This is the latest recevied weather packets stored in our database for station/object KB3FKJ. If no packets are shown the sender has not sent any weather packets the latest 10 day(s).
| Time | Temp. | Humidity | Pressure | Rain* | Wind** | Luminosity | Snow |
|---|---|---|---|---|---|---|---|
| 1777927105 | 23.33° C | 37% | 1006.1 hPa | 0 mm | - | 490 W/m² | - |
| 1777926801 | 23.33° C | 37% | 1006.3 hPa | 0 mm | - | 127 W/m² | - |
| 1777926497 | 23.33° C | 34% | 1006.2 hPa | 0 mm | - | 481 W/m² | - |
| 1777926195 | 23.89° C | 35% | 1006.4 hPa | 0 mm | - | 492 W/m² | - |
| 1777925891 | 23.89° C | 35% | 1006.3 hPa | 0 mm | - | 492 W/m² | - |
| 1777925588 | 23.89° C | 37% | 1006.5 hPa | 0 mm | - | 520 W/m² | - |
| 1777925286 | 23.89° C | 34% | 1006.8 hPa | 0 mm | - | 544 W/m² | - |
| 1777924982 | 22.78° C | 35% | 1006.8 hPa | 0 mm | - | 556 W/m² | - |
| 1777924678 | 23.33° C | 34% | 1006.8 hPa | 0 mm | - | 339 W/m² | - |
| 1777924374 | 23.33° C | 36% | 1006.7 hPa | 0 mm | - | 589 W/m² | - |
| 1777924071 | 23.33° C | 34% | 1007.1 hPa | 0 mm | - | 583 W/m² | - |
| 1777923767 | 23.33° C | 33% | 1007.2 hPa | 0 mm | - | 616 W/m² | - |
| 1777923463 | 22.78° C | 35% | 1007 hPa | 0 mm | - | 623 W/m² | - |
| 1777923161 | 23.33° C | 33% | 1007.4 hPa | 0 mm | - | 631 W/m² | - |
| 1777922859 | 23.89° C | 32% | 1007.4 hPa | 0 mm | - | 616 W/m² | - |
| 1777922557 | 23.89° C | 32% | 1007.4 hPa | 0 mm | - | 629 W/m² | - |
| 1777922256 | 22.78° C | 40% | 1007.3 hPa | 0 mm | - | 625 W/m² | - |
| 1777921952 | 22.78° C | 34% | 1007.4 hPa | 0 mm | - | 622 W/m² | - |
| 1777921647 | 22.22° C | 34% | 1007.7 hPa | 0 mm | - | 644 W/m² | - |
| 1777921344 | 22.78° C | 34% | 1007.7 hPa | 0 mm | - | 652 W/m² | - |
| 1777921041 | 22.78° C | 36% | 1007.7 hPa | 0 mm | - | 651 W/m² | - |
| 1777920738 | 22.78° C | 35% | 1007.8 hPa | 0 mm | - | 675 W/m² | - |
| 1777920434 | 22.78° C | 35% | 1007.8 hPa | 0 mm | - | 114 W/m² | - |
| 1777920130 | 22.22° C | 37% | 1008 hPa | 0 mm | - | 131 W/m² | - |
| 1777919826 | 22.22° C | 38% | 1008 hPa | 0 mm | - | 210 W/m² | - |
* Rain latest hour (hover to see other rain measurements)
** Current wind speed in m/s (hover to see current wind gust speed)